Бања Лука, Босна и Херцеговина

26. септембар 2017, 19:54 CEST (GMT +0200)
Banja Luka International | | Change Station

Надм.вис. 512 ft 44.78 °N, 17.22 °E | Updated 24 minutes ago

Делимично облачно
Делимично облачно
61 °F
Субјективни осећај 61 °F
С
2
Ветар Променљив Ветар из Променљив

Данас
Макс. -- | Мин. -- °F
--% Вероватноћа за падавине
Јуче
Макс. -- | Мин. -- °F
Precip. -- инч
Притисак 30.18 инч
Видљивост 6.2 миља
Облаци Мало 3300 ft
Тачка росе 55 °F
Влажност ваздуха 82%
Киша 0.00 инч
Висина снега Није доступно.
6:43 AM 6:41 PM
Прва четвртина, 37% visible
METAR LQBK 261730Z VRB02KT 9999 FEW033 16/13 Q1022 NOSIG
Притисак 30.18 инч
Видљивост 6.2 миља
Облаци Мало 3300 ft
Тачка росе 55 °F
Влажност ваздуха 82%
Киша 0.00 инч
Висина снега Није доступно.
6:43 AM 6:41 PM
Прва четвртина, 37% visible
METAR LQBK 261730Z VRB02KT 9999 FEW033 16/13 Q1022 NOSIG

Get Severe Weather Alerts

Thanks for signing up!

Be on the lookout for a verification email in your inbox.

You'll start receiving the daily forecast at 6 AM.

×

10-Day Weather Forecast

No radar image for this location.
×

Almanac

Астрономија

Sep. 26, 2017 Излазак Залазак
Тренутно време
Цивилни сумрак
Наутички сумрак
Астрономски сумрак
Месец
Трајање видљиве светлости
Обданица
Tomorrow will be .
, % of the Moon is Illuminated

Данашњи екстреми

Највише Најниже

Community

Category 6

Welcome to Category 6. This is the collective home for Weather Underground's featured writeups by Dr. Jeff Masters (right), Bob Henson (left), Chris Burt, and other regular contributors.

Nearby

Квалитет ваздуха (AQ)

  Квалитет ваздуха (AQ) Индекс AQ Загађење
Not available.

Висина снега

станица Висина снега Висина

Земљотрес

Место Удаљеност Магнитуда Време и датум
Минимална магнитуда која се објављује је 2.5

Темп. воде у приобаљу

Место Температура

Stations

Оближње метео-станице

Локација станице Темп. Субјективни осећај Тачка росе Влажност ваздуха Ветар Precip. Надм.вис. Ажурирано Тип